createdAt,value
2023-04-17T00:02:16.846Z,33.52
2023-04-17T00:04:45.416Z,33.49
2023-04-17T00:07:13.416Z,33.40
2023-04-17T00:09:41.183Z,33.51
2023-04-17T00:12:09.118Z,33.45
2023-04-17T00:14:36.898Z,33.46
2023-04-17T00:17:06.110Z,33.60
2023-04-17T00:19:34.011Z,33.43
2023-04-17T00:22:01.896Z,33.29
2023-04-17T00:24:29.788Z,33.52
2023-04-17T00:26:58.351Z,33.57
2023-04-17T00:29:26.254Z,33.51
2023-04-17T00:31:54.184Z,33.56
2023-04-17T00:34:23.387Z,33.52
2023-04-17T00:36:51.283Z,33.68
2023-04-17T00:39:19.043Z,33.58
2023-04-17T00:41:47.002Z,33.54
2023-04-17T00:44:14.861Z,33.57
2023-04-17T00:46:42.720Z,33.55
2023-04-17T00:49:11.985Z,33.67
2023-04-17T00:51:41.355Z,33.53
2023-04-17T00:54:10.307Z,33.38
2023-04-17T00:56:38.405Z,33.62
2023-04-17T00:59:09.925Z,33.58
2023-04-17T01:01:38.051Z,33.83
2023-04-17T01:04:06.594Z,33.69
2023-04-17T01:06:34.496Z,33.92
2023-04-17T01:09:04.109Z,33.71
2023-04-17T01:11:31.945Z,33.91
2023-04-17T01:13:59.760Z,33.67
2023-04-17T01:16:27.715Z,34.00
2023-04-17T01:18:55.645Z,33.79
2023-04-17T01:21:23.438Z,33.99
2023-04-17T01:23:52.974Z,33.87
2023-04-17T01:26:23.553Z,33.97
2023-04-17T01:28:53.071Z,33.83
2023-04-17T01:31:21.165Z,34.02
2023-04-17T01:33:49.899Z,33.96
2023-04-17T01:36:18.353Z,33.83
2023-04-17T01:38:46.569Z,33.86
2023-04-17T01:41:14.436Z,33.91
2023-04-17T01:43:45.881Z,33.80
2023-04-17T01:46:14.536Z,33.91
2023-04-17T01:48:42.644Z,34.02
2023-04-17T01:51:10.494Z,34.30
2023-04-17T01:53:40.460Z,34.08
2023-04-17T01:56:08.783Z,33.91
2023-04-17T01:58:36.536Z,34.13
2023-04-17T02:01:06.226Z,34.07
2023-04-17T02:03:34.192Z,34.06
2023-04-17T02:06:02.081Z,34.08
2023-04-17T02:08:30.518Z,34.14
2023-04-17T02:10:58.404Z,34.20
2023-04-17T02:13:26.292Z,34.12
2023-04-17T02:15:54.545Z,34.21
2023-04-17T02:18:23.806Z,34.20
2023-04-17T02:20:51.691Z,34.24
2023-04-17T02:23:19.492Z,34.05
2023-04-17T02:25:47.325Z,34.49
2023-04-17T02:28:15.835Z,34.23
2023-04-17T02:30:45.680Z,33.96
2023-04-17T02:33:15.760Z,34.44
2023-04-17T02:35:44.925Z,34.34
2023-04-17T02:38:12.771Z,34.55
2023-04-17T02:40:40.620Z,34.44
2023-04-17T02:43:08.473Z,34.43
2023-04-17T02:45:36.680Z,34.19
2023-04-17T02:48:04.741Z,34.40
2023-04-17T02:50:32.624Z,34.19
2023-04-17T02:53:01.749Z,34.42
2023-04-17T02:55:29.696Z,34.55
2023-04-17T02:57:57.553Z,34.72
2023-04-17T03:00:26.368Z,34.47
2023-04-17T03:02:54.336Z,34.61
2023-04-17T03:05:23.420Z,34.45
2023-04-17T03:07:51.361Z,34.63
2023-04-17T03:10:20.568Z,34.77
2023-04-17T03:12:48.396Z,34.62
2023-04-17T03:15:16.209Z,34.32
2023-04-17T03:17:43.994Z,34.81
2023-04-17T03:20:12.195Z,34.63
2023-04-17T03:22:39.975Z,34.95
2023-04-17T03:25:08.379Z,34.71
2023-04-17T03:27:38.706Z,34.47
2023-04-17T03:30:07.900Z,34.93
2023-04-17T03:32:36.019Z,34.78
2023-04-17T03:35:04.113Z,35.16
2023-04-17T03:37:32.418Z,34.54
2023-04-17T03:40:00.387Z,35.06
2023-04-17T03:42:28.537Z,35.05
2023-04-17T03:44:58.540Z,34.93
2023-04-17T03:47:26.459Z,34.99
2023-04-17T03:49:54.292Z,35.09
2023-04-17T03:52:23.691Z,35.12
2023-04-17T03:54:51.840Z,35.04
2023-04-17T03:57:19.648Z,35.13
2023-04-17T03:59:47.462Z,35.03
2023-04-17T04:02:16.691Z,35.26
2023-04-17T04:04:44.589Z,35.29
2023-04-17T04:07:12.669Z,35.35
2023-04-17T04:09:40.502Z,35.50
2023-04-17T04:12:08.464Z,35.62
2023-04-17T04:14:40.422Z,35.45
2023-04-17T04:17:09.605Z,35.64
2023-04-17T04:19:38.810Z,35.63
2023-04-17T04:22:07.079Z,35.75
2023-04-17T04:24:35.270Z,35.84
2023-04-17T04:27:05.422Z,35.91
2023-04-17T04:29:35.131Z,36.00
2023-04-17T04:32:03.691Z,36.01
2023-04-17T04:34:31.583Z,36.08
2023-04-17T04:37:01.330Z,36.16
2023-04-17T04:39:29.978Z,36.11
2023-04-17T04:42:05.869Z,36.03
2023-04-17T04:44:33.702Z,36.35
2023-04-17T04:47:01.688Z,36.39
2023-04-17T04:49:29.606Z,36.57
2023-04-17T04:51:57.436Z,36.33
2023-04-17T04:54:26.548Z,36.50
2023-04-17T04:56:54.328Z,36.55
2023-04-17T04:59:22.156Z,36.73
2023-04-17T05:01:50.642Z,36.56
2023-04-17T05:04:18.656Z,36.58
2023-04-17T05:06:46.542Z,36.80
2023-04-17T05:09:16.707Z,36.85
2023-04-17T05:11:46.123Z,37.25
2023-04-17T05:14:13.930Z,36.99
2023-04-17T05:16:41.881Z,37.16
2023-04-17T05:19:09.802Z,37.00
2023-04-17T05:21:37.856Z,37.40
2023-04-17T05:24:05.762Z,37.65
2023-04-17T05:26:33.551Z,37.85
2023-04-17T05:29:03.066Z,37.62
2023-04-17T05:31:31.179Z,37.58
2023-04-17T05:33:59.066Z,37.87
2023-04-17T05:36:27.796Z,38.00
2023-04-17T05:38:56.927Z,38.36
2023-04-17T05:41:24.799Z,38.32
2023-04-17T05:43:52.657Z,38.18
2023-04-17T05:46:22.243Z,38.64
2023-04-17T05:48:50.042Z,38.94
2023-04-17T05:51:17.996Z,38.73
2023-04-17T05:53:45.827Z,39.42
2023-04-17T05:56:13.649Z,39.19
2023-04-17T05:58:41.458Z,39.50
2023-04-17T06:01:10.344Z,39.47
2023-04-17T06:03:39.970Z,39.74
2023-04-17T06:06:08.872Z,39.77
2023-04-17T06:08:36.705Z,39.94
2023-04-17T06:11:04.518Z,40.23
2023-04-17T06:13:32.308Z,40.16
2023-04-17T06:16:00.202Z,40.34
2023-04-17T06:18:28.668Z,40.13
2023-04-17T06:20:58.551Z,40.56
2023-04-17T06:23:26.524Z,40.50
2023-04-17T06:25:54.312Z,40.90
2023-04-17T06:28:22.376Z,40.76
2023-04-17T06:30:51.981Z,41.18
2023-04-17T06:33:24.537Z,40.72
2023-04-17T06:35:53.910Z,41.31
2023-04-17T06:38:23.111Z,41.50
2023-04-17T06:40:52.731Z,41.06
2023-04-17T06:43:20.837Z,41.43
2023-04-17T06:45:49.171Z,41.30
2023-04-17T06:48:17.214Z,41.51
2023-04-17T06:50:44.986Z,41.93
2023-04-17T06:53:12.841Z,41.92
2023-04-17T06:55:42.118Z,41.89
2023-04-17T06:58:10.115Z,41.66
2023-04-17T07:00:37.928Z,41.89
2023-04-17T07:03:06.072Z,42.15
2023-04-17T07:05:33.933Z,41.88
2023-04-17T07:08:01.772Z,42.14
2023-04-17T07:10:29.685Z,42.41
2023-04-17T07:13:00.546Z,42.37
2023-04-17T07:15:30.771Z,42.30
2023-04-17T07:17:59.092Z,42.52
2023-04-17T07:20:28.692Z,42.54
2023-04-17T07:22:57.602Z,42.72
2023-04-17T07:25:26.501Z,42.73
2023-04-17T07:27:54.664Z,42.60
2023-04-17T07:30:23.904Z,42.80
2023-04-17T07:32:52.670Z,42.94
2023-04-17T07:35:21.240Z,43.05
2023-04-17T07:37:49.069Z,42.90
2023-04-17T07:40:17.267Z,43.19
2023-04-17T07:42:45.132Z,42.92
2023-04-17T07:45:13.053Z,43.34
2023-04-17T07:47:42.802Z,43.49
2023-04-17T07:50:10.911Z,43.40
2023-04-17T07:52:38.995Z,43.22
2023-04-17T07:55:07.363Z,43.43
2023-04-17T07:57:35.367Z,43.52
2023-04-17T08:00:04.580Z,43.24
2023-04-17T08:02:32.508Z,43.53
2023-04-17T08:05:02.246Z,43.64
2023-04-17T08:07:30.118Z,43.59
2023-04-17T08:09:58.142Z,43.60
2023-04-17T08:12:25.977Z,43.67
2023-04-17T08:14:53.747Z,43.73
2023-04-17T08:17:23.467Z,43.71
2023-04-17T08:19:53.534Z,43.74
2023-04-17T08:22:24.257Z,43.79
2023-04-17T08:24:54.770Z,43.83
2023-04-17T08:27:22.579Z,43.84
2023-04-17T08:29:50.504Z,43.95
2023-04-17T08:32:18.422Z,43.95
2023-04-17T08:34:46.842Z,43.98
2023-04-17T08:37:14.687Z,43.85
2023-04-17T08:39:43.829Z,43.96
2023-04-17T08:42:17.481Z,44.26
2023-04-17T08:44:46.533Z,44.09
2023-04-17T08:47:14.637Z,44.20
2023-04-17T08:49:44.001Z,44.10
2023-04-17T08:52:12.236Z,44.14
2023-04-17T08:54:40.027Z,44.10
2023-04-17T08:57:09.208Z,44.09
2023-04-17T08:59:37.041Z,44.00
2023-04-17T09:02:06.365Z,44.11
2023-04-17T09:04:39.366Z,44.09
2023-04-17T09:07:07.757Z,44.15
2023-04-17T09:09:52.900Z,44.20
2023-04-17T09:12:23.481Z,44.02
2023-04-17T09:14:51.768Z,43.89
2023-04-17T09:17:21.480Z,44.15
2023-04-17T09:20:06.508Z,43.99
2023-04-17T09:22:35.407Z,43.83
2023-04-17T09:25:03.294Z,44.08
2023-04-17T09:27:32.546Z,44.09
2023-04-17T09:30:02.624Z,44.15
2023-04-17T09:32:34.686Z,43.96
2023-04-17T09:35:05.024Z,44.05
2023-04-17T09:37:50.011Z,44.01
2023-04-17T09:40:18.711Z,43.86
2023-04-17T09:42:57.258Z,43.59
2023-04-17T09:45:26.138Z,43.67
2023-04-17T09:47:56.241Z,43.68
2023-04-17T09:50:25.546Z,43.65
2023-04-17T09:52:55.989Z,43.53
2023-04-17T09:55:26.667Z,43.59
2023-04-17T09:57:57.788Z,43.50
2023-04-17T10:00:27.594Z,43.51
2023-04-17T10:02:57.657Z,43.20
2023-04-17T10:05:27.107Z,43.24
2023-04-17T10:07:55.008Z,43.02
2023-04-17T10:10:24.549Z,43.16
2023-04-17T10:12:57.268Z,42.92
2023-04-17T10:15:26.081Z,42.81
2023-04-17T10:17:56.486Z,43.11
2023-04-17T10:20:35.407Z,42.82
2023-04-17T10:23:27.696Z,43.04
2023-04-17T10:26:43.223Z,42.50
2023-04-17T10:29:13.347Z,42.46
2023-04-17T10:32:16.553Z,42.70
2023-04-17T10:34:44.415Z,42.53
2023-04-17T10:37:15.325Z,42.48
2023-04-17T10:40:10.856Z,41.99
2023-04-17T10:42:38.670Z,42.35
2023-04-17T10:45:20.076Z,41.88
2023-04-17T10:47:59.585Z,41.96
2023-04-17T10:50:29.259Z,41.54
2023-04-17T10:52:57.130Z,41.83
2023-04-17T10:55:27.857Z,41.48
2023-04-17T10:57:59.036Z,41.23
2023-04-17T11:00:34.542Z,41.32
2023-04-17T11:03:03.441Z,41.28
2023-04-17T11:05:32.365Z,41.29
2023-04-17T11:08:00.588Z,40.80
2023-04-17T11:10:28.574Z,40.78
2023-04-17T11:12:56.857Z,40.79
2023-04-17T11:15:29.207Z,40.46
2023-04-17T11:18:00.109Z,40.70
2023-04-17T11:20:30.506Z,40.64
2023-04-17T11:23:01.405Z,40.18
2023-04-17T11:25:31.504Z,40.13
2023-04-17T11:28:00.816Z,39.84
2023-04-17T11:30:30.900Z,39.69
2023-04-17T11:33:02.255Z,40.08
2023-04-17T11:35:32.175Z,39.56
2023-04-17T11:38:12.069Z,39.75
2023-04-17T11:40:44.609Z,39.58
2023-04-17T11:43:13.341Z,39.77
2023-04-17T11:45:43.240Z,39.42
2023-04-17T11:48:14.508Z,39.28
2023-04-17T11:50:43.673Z,39.39
2023-04-17T11:53:15.382Z,38.91
2023-04-17T11:55:43.381Z,38.87
2023-04-17T11:58:15.076Z,38.56
2023-04-17T12:00:43.698Z,38.70
2023-04-17T12:03:35.898Z,38.47
2023-04-17T12:06:06.574Z,38.63
2023-04-17T12:08:43.374Z,38.33
2023-04-17T12:11:20.275Z,38.07
2023-04-17T12:13:48.212Z,38.27
2023-04-17T12:16:16.065Z,38.10
2023-04-17T12:18:45.955Z,38.00
2023-04-17T12:21:13.913Z,37.82
2023-04-17T12:23:42.300Z,37.56
2023-04-17T12:26:10.532Z,37.29
2023-04-17T12:28:39.003Z,37.32
2023-04-17T12:31:07.185Z,37.19
2023-04-17T12:33:35.372Z,37.29
2023-04-17T12:36:06.527Z,36.96
2023-04-17T12:38:34.441Z,36.87
2023-04-17T12:41:02.291Z,37.12
2023-04-17T12:43:30.105Z,36.78
2023-04-17T12:45:58.432Z,36.52
2023-04-17T12:48:26.457Z,36.37
2023-04-17T12:50:54.572Z,36.44
2023-04-17T12:53:23.902Z,36.27
2023-04-17T12:55:51.863Z,36.26
2023-04-17T12:58:19.683Z,35.98
2023-04-17T13:00:48.057Z,35.99
2023-04-17T13:03:16.153Z,36.01
2023-04-17T13:05:44.558Z,35.71
2023-04-17T13:08:15.194Z,35.69
2023-04-17T13:10:44.397Z,35.39
2023-04-17T13:13:12.636Z,35.30
2023-04-17T13:15:40.637Z,35.50
2023-04-17T13:18:10.529Z,35.29
2023-04-17T13:20:38.782Z,35.40
2023-04-17T13:23:06.631Z,34.74
2023-04-17T13:25:34.575Z,34.79
2023-04-17T13:28:03.894Z,34.72
2023-04-17T13:30:32.350Z,34.72
2023-04-17T13:33:03.370Z,34.72
2023-04-17T13:35:31.230Z,34.74
2023-04-17T13:38:02.227Z,34.50
2023-04-17T13:40:30.110Z,34.47
2023-04-17T13:42:58.524Z,34.22
2023-04-17T13:45:27.720Z,34.45
2023-04-17T13:47:55.911Z,34.23
2023-04-17T13:50:23.967Z,33.93
2023-04-17T13:52:51.726Z,33.91
2023-04-17T13:55:19.608Z,33.84
2023-04-17T13:57:47.379Z,33.89
2023-04-17T14:00:17.276Z,33.74
2023-04-17T14:02:49.222Z,33.61
2023-04-17T14:05:17.361Z,33.65
2023-04-17T14:07:45.639Z,33.61
2023-04-17T14:10:13.653Z,33.24
2023-04-17T14:12:41.646Z,33.24
2023-04-17T14:15:10.473Z,33.49
2023-04-17T14:17:42.839Z,33.04
2023-04-17T14:20:15.152Z,33.05
2023-04-17T14:22:43.087Z,32.77
2023-04-17T14:25:11.290Z,32.74
2023-04-17T14:27:39.790Z,32.74
2023-04-17T14:30:09.113Z,32.43
2023-04-17T14:32:38.455Z,32.47
2023-04-17T14:35:07.349Z,32.48
2023-04-17T14:37:36.523Z,32.18
2023-04-17T14:40:05.075Z,32.26
2023-04-17T14:42:38.090Z,32.37
2023-04-17T14:45:15.392Z,31.80
2023-04-17T14:47:44.128Z,31.91
2023-04-17T14:50:12.519Z,31.97
2023-04-17T14:52:41.866Z,31.44
2023-04-17T14:55:11.381Z,31.55
2023-04-17T14:57:40.426Z,31.29
2023-04-17T15:00:09.543Z,31.63
2023-04-17T15:02:39.546Z,31.29
2023-04-17T15:05:08.614Z,31.22
2023-04-17T15:07:36.808Z,31.01
2023-04-17T15:10:07.043Z,31.31
2023-04-17T15:12:34.801Z,30.86
2023-04-17T15:15:02.613Z,30.93
2023-04-17T15:17:30.628Z,31.00
2023-04-17T15:20:00.686Z,30.81
2023-04-17T15:22:28.552Z,30.98
2023-04-17T15:24:56.392Z,30.89
2023-04-17T15:27:25.799Z,30.66
2023-04-17T15:29:53.825Z,30.45
2023-04-17T15:32:21.872Z,30.34
2023-04-17T15:34:49.773Z,30.11
2023-04-17T15:37:17.693Z,29.99
2023-04-17T15:39:45.557Z,29.88
2023-04-17T15:42:13.319Z,29.73
2023-04-17T15:44:42.640Z,29.73
2023-04-17T15:47:10.442Z,29.59
2023-04-17T15:49:38.404Z,29.67
2023-04-17T15:52:06.872Z,29.56
2023-04-17T15:54:34.801Z,29.73
2023-04-17T15:57:02.729Z,29.56
2023-04-17T15:59:32.021Z,29.81
2023-04-17T16:02:01.492Z,29.59
2023-04-17T16:04:29.917Z,29.54
2023-04-17T16:06:57.900Z,29.41
2023-04-17T16:09:25.678Z,29.27
2023-04-17T16:11:54.760Z,29.25
2023-04-17T16:14:22.600Z,29.15
2023-04-17T16:16:50.518Z,28.89
2023-04-17T16:19:19.733Z,28.81
2023-04-17T16:21:47.681Z,28.80
2023-04-17T16:24:15.419Z,28.42
2023-04-17T16:26:44.060Z,28.55
2023-04-17T16:29:12.037Z,28.64
2023-04-17T16:31:40.137Z,28.47
2023-04-17T16:34:09.625Z,28.36
2023-04-17T16:36:38.914Z,28.30
2023-04-17T16:39:08.645Z,28.17
2023-04-17T16:41:36.706Z,28.00
2023-04-17T16:44:05.352Z,28.06
2023-04-17T16:46:45.694Z,27.91
2023-04-17T16:49:21.010Z,27.97
2023-04-17T16:51:50.229Z,28.15
2023-04-17T16:54:19.374Z,27.67
2023-04-17T16:56:48.237Z,28.05
2023-04-17T16:59:17.466Z,27.67
2023-04-17T17:01:49.750Z,27.54
2023-04-17T17:04:18.193Z,27.37
2023-04-17T17:06:46.265Z,27.74
2023-04-17T17:09:15.659Z,27.38
2023-04-17T17:11:43.607Z,27.29
2023-04-17T17:14:11.645Z,27.86
2023-04-17T17:16:41.054Z,28.13
2023-04-17T17:19:09.007Z,27.68
2023-04-17T17:21:36.962Z,27.09
2023-04-17T17:24:05.441Z,27.25
2023-04-17T17:26:35.614Z,27.65
2023-04-17T17:29:03.770Z,27.29
2023-04-17T17:31:31.734Z,27.63
2023-04-17T17:34:11.852Z,27.30
2023-04-17T17:36:48.913Z,26.96
2023-04-17T17:39:16.942Z,27.01
2023-04-17T17:41:47.529Z,27.21
2023-04-17T17:44:15.781Z,27.12
2023-04-17T17:46:43.623Z,27.04
2023-04-17T17:49:11.707Z,27.25
2023-04-17T17:51:39.620Z,26.92
2023-04-17T17:54:07.963Z,27.10
2023-04-17T17:56:35.852Z,27.10
2023-04-17T17:59:05.172Z,27.26
2023-04-17T18:01:33.327Z,27.07
2023-04-17T18:04:01.366Z,27.13
2023-04-17T18:06:29.399Z,26.99
2023-04-17T18:08:58.732Z,27.38
2023-04-17T18:11:27.270Z,27.19
2023-04-17T18:13:55.276Z,27.07
2023-04-17T18:16:24.960Z,27.15
2023-04-17T18:18:52.996Z,26.99
2023-04-17T18:21:20.995Z,26.70
2023-04-17T18:23:48.874Z,27.04
2023-04-17T18:26:16.764Z,26.98
2023-04-17T18:28:44.550Z,27.09
2023-04-17T18:31:12.616Z,26.59
2023-04-17T18:33:42.270Z,26.50
2023-04-17T18:36:10.335Z,26.92
2023-04-17T18:38:38.425Z,26.84
2023-04-17T18:41:06.599Z,26.63
2023-04-17T18:43:34.873Z,26.62
2023-04-17T18:46:04.745Z,26.75
2023-04-17T18:48:32.482Z,26.81
2023-04-17T18:51:11.499Z,26.47
2023-04-17T18:53:39.389Z,26.98
2023-04-17T18:56:08.597Z,27.08
2023-04-17T18:58:37.757Z,27.01
2023-04-17T19:01:06.511Z,26.89
2023-04-17T19:03:34.754Z,26.44
2023-04-17T19:06:02.823Z,26.65
2023-04-17T19:08:32.021Z,26.73
2023-04-17T19:10:59.892Z,26.45
2023-04-17T19:13:28.058Z,26.38
2023-04-17T19:15:56.132Z,26.58
2023-04-17T19:18:24.101Z,26.39
2023-04-17T19:20:52.024Z,26.88
2023-04-17T19:23:44.913Z,26.49
2023-04-17T19:26:39.420Z,27.02
2023-04-17T19:29:07.260Z,26.33
2023-04-17T19:31:35.267Z,26.91
2023-04-17T19:34:03.235Z,26.47
2023-04-17T19:36:31.123Z,26.49
2023-04-17T19:38:59.797Z,26.51
2023-04-17T19:41:27.654Z,26.71
2023-04-17T19:43:56.827Z,26.63
2023-04-17T19:46:26.116Z,26.60
2023-04-17T19:48:54.180Z,26.56
2023-04-17T19:51:22.217Z,26.73
2023-04-17T19:53:49.915Z,26.30
2023-04-17T19:56:17.922Z,26.65
2023-04-17T19:58:45.768Z,26.51
2023-04-17T20:01:15.533Z,26.59
2023-04-17T20:03:45.446Z,26.62
2023-04-17T20:06:13.926Z,26.70
2023-04-17T20:08:41.775Z,26.58
2023-04-17T20:11:12.157Z,26.72
2023-04-17T20:13:40.398Z,26.61
2023-04-17T20:16:08.576Z,26.43
2023-04-17T20:18:38.208Z,26.62
2023-04-17T20:21:07.120Z,26.31
2023-04-17T20:23:35.035Z,26.57
2023-04-17T20:26:03.380Z,26.78
2023-04-17T20:28:31.403Z,26.53
2023-04-17T20:30:59.288Z,26.66
2023-04-17T20:33:27.175Z,26.76
2023-04-17T20:35:56.379Z,26.64
2023-04-17T20:38:24.216Z,26.65
2023-04-17T20:40:51.996Z,26.65
2023-04-17T20:43:19.727Z,26.80
2023-04-17T20:45:48.422Z,26.64
2023-04-17T20:48:16.572Z,26.52
2023-04-17T20:50:44.414Z,26.60
2023-04-17T20:53:13.627Z,26.69
2023-04-17T20:55:41.400Z,27.00
2023-04-17T20:58:09.274Z,26.78
2023-04-17T21:00:42.042Z,26.79
2023-04-17T21:03:15.509Z,26.65
2023-04-17T21:05:43.470Z,26.80
2023-04-17T21:08:12.831Z,26.67
2023-04-17T21:10:41.338Z,26.91
2023-04-17T21:13:09.548Z,26.78
2023-04-17T21:15:37.358Z,26.65
2023-04-17T21:18:05.360Z,26.92
2023-04-17T21:20:33.264Z,26.69
2023-04-17T21:23:01.277Z,26.63
2023-04-17T21:25:30.400Z,26.68
2023-04-17T21:27:58.252Z,26.45
2023-04-17T21:30:27.440Z,26.81
2023-04-17T21:32:56.062Z,26.68
2023-04-17T21:35:24.020Z,26.95
2023-04-17T21:37:51.858Z,26.73
2023-04-17T21:40:19.866Z,26.86
2023-04-17T21:42:49.000Z,26.58
2023-04-17T21:45:17.291Z,26.77
2023-04-17T21:47:45.087Z,26.61
2023-04-17T21:50:13.000Z,26.96
2023-04-17T21:52:41.248Z,26.86
2023-04-17T21:55:09.818Z,26.96
2023-04-17T21:57:37.574Z,27.09
2023-04-17T22:00:11.615Z,26.70
2023-04-17T22:02:39.877Z,26.90
2023-04-17T22:05:08.222Z,27.06
2023-04-17T22:07:47.303Z,27.04
2023-04-17T22:10:22.011Z,26.79
2023-04-17T22:12:49.881Z,26.88
2023-04-17T22:15:19.332Z,26.92
2023-04-17T22:17:47.316Z,26.88
2023-04-17T22:20:15.572Z,26.59
2023-04-17T22:23:38.221Z,26.91
2023-04-17T22:27:01.317Z,26.66
2023-04-17T22:30:23.985Z,26.59
2023-04-17T22:33:47.445Z,26.64
2023-04-17T22:37:10.197Z,26.88
2023-04-17T22:40:32.817Z,26.99
2023-04-17T22:43:55.847Z,26.80
2023-04-17T22:46:25.251Z,27.00
2023-04-17T22:48:53.486Z,26.83
2023-04-17T22:51:21.392Z,27.07
2023-04-17T22:53:49.437Z,26.76
2023-04-17T22:56:17.387Z,26.97
2023-04-17T22:58:45.401Z,27.32
2023-04-17T23:01:13.414Z,26.91
2023-04-17T23:03:42.791Z,26.89
2023-04-17T23:06:11.332Z,27.33
2023-04-17T23:08:39.285Z,26.88
2023-04-17T23:11:07.674Z,27.41
2023-04-17T23:13:37.378Z,27.06
2023-04-17T23:16:05.494Z,27.10
2023-04-17T23:18:33.368Z,27.38
2023-04-17T23:21:02.580Z,27.12
2023-04-17T23:23:30.378Z,27.55
2023-04-17T23:25:58.462Z,27.09
2023-04-17T23:28:30.427Z,27.27
2023-04-17T23:30:58.661Z,27.19
2023-04-17T23:33:26.761Z,27.48
2023-04-17T23:35:54.503Z,27.35
2023-04-17T23:38:23.781Z,27.55
2023-04-17T23:40:51.789Z,27.43
2023-04-17T23:43:19.570Z,27.49
2023-04-17T23:45:47.640Z,27.32
2023-04-17T23:48:15.421Z,27.58
2023-04-17T23:50:43.294Z,27.72
2023-04-17T23:53:11.272Z,27.30
2023-04-17T23:55:40.762Z,27.60
2023-04-17T23:58:09.050Z,27.49
